createdAt,value
2017-11-01T00:01:51.451Z,12.30
2017-11-01T00:04:18.772Z,11.00
2017-11-01T00:06:46.451Z,12.03
2017-11-01T00:09:13.814Z,11.37
2017-11-01T00:11:41.157Z,10.70
2017-11-01T00:14:08.525Z,11.33
2017-11-01T00:16:35.895Z,11.23
2017-11-01T00:19:03.249Z,11.30
2017-11-01T00:21:30.561Z,11.37
2017-11-01T00:23:58.022Z,11.80
2017-11-01T00:26:25.343Z,11.60
2017-11-01T00:28:52.652Z,11.67
2017-11-01T00:31:20.001Z,11.37
2017-11-01T00:33:47.309Z,12.40
2017-11-01T00:36:14.633Z,12.80
2017-11-01T00:38:41.932Z,12.03
2017-11-01T00:41:09.360Z,11.63
2017-11-01T00:43:36.661Z,13.50
2017-11-01T00:46:04.042Z,12.70
2017-11-01T00:48:31.680Z,13.90
2017-11-01T00:50:59.828Z,13.17
2017-11-01T00:53:27.148Z,13.73
2017-11-01T00:55:54.452Z,13.87
2017-11-01T00:58:21.814Z,14.67
2017-11-01T01:00:49.172Z,14.33
2017-11-01T01:03:16.516Z,14.50
2017-11-01T01:05:43.837Z,13.87
2017-11-01T01:08:11.245Z,13.93
2017-11-01T01:10:38.545Z,13.33
2017-11-01T01:13:05.913Z,13.33
2017-11-01T01:15:33.557Z,14.40
2017-11-01T01:18:01.214Z,13.37
2017-11-01T01:20:28.501Z,13.90
2017-11-01T01:22:55.825Z,15.00
2017-11-01T01:25:23.135Z,14.80
2017-11-01T01:27:50.456Z,12.57
2017-11-01T01:30:18.088Z,15.13
2017-11-01T01:32:47.363Z,16.37
2017-11-01T01:35:14.682Z,13.27
2017-11-01T01:37:43.086Z,15.47
2017-11-01T01:40:10.840Z,16.07
2017-11-01T01:42:38.149Z,16.70
2017-11-01T01:45:05.489Z,16.23
2017-11-01T01:47:32.792Z,15.40
2017-11-01T01:50:00.123Z,16.93
2017-11-01T01:52:27.425Z,18.50
2017-11-01T01:54:54.791Z,16.80
2017-11-01T01:57:22.117Z,15.97
2017-11-01T01:59:50.382Z,18.10
2017-11-01T02:02:17.686Z,17.20
2017-11-01T02:04:45.008Z,17.93
2017-11-01T02:07:12.310Z,19.50
2017-11-01T02:09:39.637Z,18.00
2017-11-01T02:12:06.941Z,16.13
2017-11-01T02:14:35.025Z,17.50
2017-11-01T02:17:02.532Z,18.43
2017-11-01T02:19:30.710Z,17.83
2017-11-01T02:21:58.029Z,18.20
2017-11-01T02:24:25.344Z,17.07
2017-11-01T02:26:52.665Z,18.10
2017-11-01T02:29:19.973Z,17.77
2017-11-01T02:31:47.293Z,16.20
2017-11-01T02:34:14.605Z,17.80
2017-11-01T02:36:41.920Z,18.83
2017-11-01T02:39:09.260Z,18.07
2017-11-01T02:41:36.738Z,18.23
2017-11-01T02:44:04.042Z,18.07
2017-11-01T02:46:31.784Z,19.77
2017-11-01T02:48:59.104Z,17.27
2017-11-01T02:51:26.410Z,19.07
2017-11-01T02:53:53.730Z,18.60
2017-11-01T02:56:21.038Z,18.23
2017-11-01T02:58:48.356Z,18.83
2017-11-01T03:01:15.666Z,19.57
2017-11-01T03:03:42.990Z,19.27
2017-11-01T03:06:10.301Z,19.37
2017-11-01T03:08:37.680Z,19.10
2017-11-01T03:11:05.037Z,19.40
2017-11-01T03:13:32.366Z,18.80
2017-11-01T03:15:59.669Z,20.30
2017-11-01T03:18:29.101Z,21.00
2017-11-01T03:20:56.425Z,21.17
2017-11-01T03:23:23.743Z,21.17
2017-11-01T03:25:51.061Z,21.57
2017-11-01T03:28:18.382Z,21.80
2017-11-01T03:30:45.707Z,22.50
2017-11-01T03:33:13.009Z,21.97
2017-11-01T03:35:40.325Z,21.30
2017-11-01T03:38:07.653Z,21.80
2017-11-01T03:40:35.980Z,23.73
2017-11-01T03:43:03.341Z,23.40
2017-11-01T03:45:30.690Z,21.60
2017-11-01T03:47:57.992Z,23.10
2017-11-01T03:50:25.629Z,21.60
2017-11-01T03:52:52.941Z,20.70
2017-11-01T03:55:21.302Z,22.40
2017-11-01T03:57:48.620Z,21.47
2017-11-01T04:00:15.945Z,22.17
2017-11-01T04:02:44.269Z,23.50
2017-11-01T04:05:11.598Z,22.13
2017-11-01T04:07:38.913Z,22.50
2017-11-01T04:10:06.256Z,23.30
2017-11-01T04:12:33.589Z,22.33
2017-11-01T04:15:00.964Z,25.03
2017-11-01T04:17:28.272Z,24.80
2017-11-01T04:19:56.587Z,25.00
2017-11-01T04:22:23.914Z,22.57
2017-11-01T04:24:51.236Z,23.50
2017-11-01T04:27:18.557Z,24.63
2017-11-01T04:29:45.886Z,24.00
2017-11-01T04:32:14.082Z,24.50
2017-11-01T04:34:41.393Z,25.90
2017-11-01T04:37:08.722Z,25.90
2017-11-01T04:39:36.025Z,24.93
2017-11-01T04:42:03.346Z,24.07
2017-11-01T04:44:30.657Z,25.07
2017-11-01T04:46:57.997Z,26.47
2017-11-01T04:49:25.782Z,25.97
2017-11-01T04:51:53.089Z,25.47
2017-11-01T04:54:20.431Z,25.40
2017-11-01T04:56:47.760Z,24.70
2017-11-01T04:59:15.502Z,24.00
2017-11-01T05:01:42.824Z,22.50
2017-11-01T05:04:10.317Z,24.10
2017-11-01T05:06:47.532Z,24.00
2017-11-01T05:09:14.877Z,21.73
2017-11-01T05:11:42.173Z,22.60
2017-11-01T05:14:16.224Z,20.67
2017-11-01T05:16:44.257Z,22.03
2017-11-01T05:19:11.580Z,20.03
2017-11-01T05:21:39.674Z,20.50
2017-11-01T05:24:07.127Z,20.97
2017-11-01T05:26:34.424Z,20.90
2017-11-01T05:29:01.741Z,20.50
2017-11-01T05:31:29.055Z,20.20
2017-11-01T05:33:56.381Z,19.67
2017-11-01T05:36:23.774Z,21.53
2017-11-01T05:38:51.113Z,20.27
2017-11-01T05:41:18.465Z,20.13
2017-11-01T05:43:46.536Z,19.93
2017-11-01T05:46:13.861Z,18.90
2017-11-01T05:48:41.165Z,19.53
2017-11-01T05:51:09.393Z,18.83
2017-11-01T05:53:36.741Z,19.63
2017-11-01T05:56:04.049Z,20.00
2017-11-01T05:58:31.357Z,18.30
2017-11-01T06:00:58.681Z,18.67
2017-11-01T06:03:26.004Z,18.57
2017-11-01T06:05:53.333Z,20.60
2017-11-01T06:08:20.942Z,18.37
2017-11-01T06:10:48.264Z,19.40
2017-11-01T06:13:15.594Z,18.17
2017-11-01T06:15:42.896Z,18.23
2017-11-01T06:18:10.227Z,19.67
2017-11-01T06:20:37.529Z,19.17
2017-11-01T06:23:04.865Z,18.03
2017-11-01T06:25:32.175Z,18.20
2017-11-01T06:27:59.496Z,17.13
2017-11-01T06:30:26.821Z,18.17
2017-11-01T06:32:54.435Z,17.40
2017-11-01T06:35:21.736Z,16.13
2017-11-01T06:37:49.085Z,17.53
2017-11-01T06:40:16.393Z,16.50
2017-11-01T06:42:43.721Z,16.70
2017-11-01T06:45:11.025Z,16.50
2017-11-01T06:47:38.345Z,14.00
2017-11-01T06:50:05.665Z,15.17
2017-11-01T06:52:32.974Z,15.83
2017-11-01T06:55:00.310Z,16.43
2017-11-01T06:57:27.627Z,16.10
2017-11-01T06:59:57.689Z,14.93
2017-11-01T07:02:25.039Z,15.40
2017-11-01T07:04:54.237Z,15.93
2017-11-01T07:07:21.562Z,14.67
2017-11-01T07:09:48.893Z,15.87
2017-11-01T07:12:16.253Z,16.10
2017-11-01T07:14:43.589Z,15.80
2017-11-01T07:17:11.110Z,16.10
2017-11-01T07:19:38.445Z,16.30
2017-11-01T07:22:05.766Z,17.07
2017-11-01T07:24:33.871Z,18.13
2017-11-01T07:27:01.188Z,16.90
2017-11-01T07:29:29.509Z,18.50
2017-11-01T07:31:56.841Z,15.77
2017-11-01T07:34:24.153Z,18.47
2017-11-01T07:36:51.508Z,17.80
2017-11-01T07:39:18.848Z,16.10
2017-11-01T07:41:46.164Z,17.63
2017-11-01T07:44:13.476Z,16.50
2017-11-01T07:46:40.803Z,17.37
2017-11-01T07:49:08.112Z,16.73
2017-11-01T07:51:36.340Z,18.13
2017-11-01T07:54:03.667Z,17.03
2017-11-01T07:56:31.017Z,15.90
2017-11-01T07:58:58.336Z,17.20
2017-11-01T08:01:25.769Z,19.20
2017-11-01T08:03:53.093Z,17.43
2017-11-01T08:06:21.365Z,17.27
2017-11-01T08:08:48.714Z,16.90
2017-11-01T08:11:16.021Z,16.50
2017-11-01T08:13:43.352Z,17.60
2017-11-01T08:16:10.662Z,16.13
2017-11-01T08:18:37.989Z,17.10
2017-11-01T08:21:05.298Z,15.50
2017-11-01T08:23:32.620Z,15.77
2017-11-01T08:26:05.654Z,14.90
2017-11-01T08:28:33.019Z,15.43
2017-11-01T08:31:00.317Z,15.30
2017-11-01T08:33:27.634Z,14.10
2017-11-01T08:35:54.957Z,13.40
2017-11-01T08:38:22.259Z,13.17
2017-11-01T08:40:51.208Z,13.13
2017-11-01T08:43:18.541Z,12.73
2017-11-01T08:45:45.958Z,11.17
2017-11-01T08:48:13.274Z,11.80
2017-11-01T08:50:40.598Z,12.93
2017-11-01T08:53:08.957Z,12.03
2017-11-01T08:55:36.320Z,12.70
2017-11-01T08:58:03.641Z,12.50
2017-11-01T09:00:31.899Z,11.27
2017-11-01T09:02:59.206Z,11.63
2017-11-01T09:05:27.680Z,11.50
2017-11-01T09:07:54.988Z,10.83
2017-11-01T09:10:22.322Z,10.50
2017-11-01T09:12:49.929Z,11.17
2017-11-01T09:15:17.242Z,10.50
2017-11-01T09:17:44.634Z,9.57
2017-11-01T09:20:11.942Z,9.90
2017-11-01T09:22:40.168Z,9.67
2017-11-01T09:25:07.493Z,9.40
2017-11-01T09:27:34.821Z,9.77
2017-11-01T09:30:02.109Z,9.40
2017-11-01T09:32:29.420Z,8.80
2017-11-01T09:34:56.720Z,9.20
2017-11-01T09:37:24.034Z,8.20
2017-11-01T09:39:51.327Z,8.57
2017-11-01T09:42:18.643Z,8.37
2017-11-01T09:44:46.069Z,8.00
2017-11-01T09:47:13.514Z,8.47
2017-11-01T09:49:40.829Z,9.10
2017-11-01T09:52:08.149Z,8.87
2017-11-01T09:54:35.529Z,8.20
2017-11-01T09:57:03.745Z,8.60
2017-11-01T09:59:31.091Z,9.47
2017-11-01T10:01:59.496Z,10.00
2017-11-01T10:04:26.812Z,9.33
2017-11-01T10:06:54.109Z,8.90
2017-11-01T10:09:21.427Z,10.00
2017-11-01T10:11:50.110Z,9.20
2017-11-01T10:14:17.428Z,10.50
2017-11-01T10:16:44.730Z,9.70
2017-11-01T10:19:12.064Z,10.47
2017-11-01T10:21:39.394Z,11.47
2017-11-01T10:24:06.754Z,11.83
2017-11-01T10:26:34.101Z,14.63
2017-11-01T10:29:01.396Z,13.47
2017-11-01T10:31:28.747Z,13.67
2017-11-01T10:33:56.045Z,14.17
2017-11-01T10:36:23.397Z,14.37
2017-11-01T10:38:50.741Z,13.80
2017-11-01T10:41:18.894Z,15.30
2017-11-01T10:43:46.214Z,14.50
2017-11-01T10:46:13.589Z,16.00
2017-11-01T10:48:40.893Z,15.17
2017-11-01T10:51:08.231Z,15.17
2017-11-01T10:53:35.565Z,15.07
2017-11-01T10:56:03.413Z,14.43
2017-11-01T10:58:31.675Z,16.90
2017-11-01T11:00:59.012Z,17.00
2017-11-01T11:03:26.327Z,18.30
2017-11-01T11:05:53.653Z,17.20
2017-11-01T11:08:21.837Z,19.27
2017-11-01T11:10:49.219Z,17.17
2017-11-01T11:13:16.541Z,19.60
2017-11-01T11:15:43.851Z,17.90
2017-11-01T11:18:11.540Z,20.53
2017-11-01T11:20:38.844Z,19.40
2017-11-01T11:23:06.169Z,19.20
2017-11-01T11:25:33.496Z,19.80
2017-11-01T11:28:00.833Z,20.17
2017-11-01T11:30:28.165Z,23.90
2017-11-01T11:32:55.509Z,21.70
2017-11-01T11:35:22.811Z,23.17
2017-11-01T11:37:50.143Z,20.63
2017-11-01T11:40:17.447Z,20.00
2017-11-01T11:42:44.748Z,23.43
2017-11-01T11:45:12.084Z,22.80
2017-11-01T11:47:39.528Z,21.90
2017-11-01T11:50:06.933Z,23.60
2017-11-01T11:52:34.392Z,22.43
2017-11-01T11:55:01.718Z,22.87
2017-11-01T11:57:29.033Z,21.20
2017-11-01T11:59:56.366Z,24.80
2017-11-01T12:02:23.679Z,22.73
2017-11-01T12:04:51.034Z,23.40
2017-11-01T12:07:18.378Z,23.33
2017-11-01T12:09:45.713Z,24.30
2017-11-01T12:12:13.050Z,25.10
2017-11-01T12:14:40.353Z,20.87
2017-11-01T12:17:07.676Z,21.40
2017-11-01T12:19:34.989Z,23.10
2017-11-01T12:22:02.318Z,22.53
2017-11-01T12:24:29.633Z,21.63
2017-11-01T12:26:56.957Z,23.90
2017-11-01T12:29:24.269Z,22.40
2017-11-01T12:31:51.597Z,22.97
2017-11-01T12:34:18.916Z,22.00
2017-11-01T12:36:46.333Z,21.13
2017-11-01T12:39:13.647Z,21.17
2017-11-01T12:41:40.973Z,18.47
2017-11-01T12:44:08.285Z,19.67
2017-11-01T12:46:35.613Z,20.60
2017-11-01T12:49:02.974Z,20.33
2017-11-01T12:51:30.289Z,19.13
2017-11-01T12:53:57.614Z,19.70
2017-11-01T12:56:26.643Z,20.20
2017-11-01T12:58:54.026Z,19.90
2017-11-01T13:01:21.341Z,19.97
2017-11-01T13:03:48.661Z,18.53
2017-11-01T13:06:16.264Z,18.10
2017-11-01T13:08:43.589Z,20.07
2017-11-01T13:11:10.896Z,19.43
2017-11-01T13:13:38.232Z,20.27
2017-11-01T13:16:05.577Z,22.10
2017-11-01T13:18:32.889Z,21.83
2017-11-01T13:21:00.198Z,21.97
2017-11-01T13:23:27.533Z,19.77
2017-11-01T13:25:55.557Z,19.00
2017-11-01T13:28:22.861Z,20.47
2017-11-01T13:30:50.219Z,19.33
2017-11-01T13:33:17.552Z,19.23
2017-11-01T13:35:44.878Z,21.97
2017-11-01T13:38:12.194Z,21.70
2017-11-01T13:40:39.520Z,21.50
2017-11-01T13:43:06.824Z,20.33
2017-11-01T13:45:34.212Z,20.53
2017-11-01T13:48:01.515Z,20.30
2017-11-01T13:50:28.853Z,21.03
2017-11-01T13:52:56.213Z,20.10
2017-11-01T13:55:23.549Z,19.97
2017-11-01T13:57:50.878Z,19.87
2017-11-01T14:00:18.258Z,20.77
2017-11-01T14:02:49.780Z,18.00
2017-11-01T14:05:17.173Z,21.63
2017-11-01T14:07:45.002Z,18.30
2017-11-01T14:10:12.298Z,21.20
2017-11-01T14:12:39.634Z,19.70
2017-11-01T14:15:06.976Z,20.27
2017-11-01T14:17:34.332Z,20.20
2017-11-01T14:20:01.677Z,21.80
2017-11-01T14:22:29.871Z,21.10
2017-11-01T14:24:57.250Z,22.10
2017-11-01T14:27:24.573Z,21.33
2017-11-01T14:29:52.410Z,21.77
2017-11-01T14:32:19.781Z,22.10
2017-11-01T14:34:47.886Z,22.37
2017-11-01T14:37:15.546Z,21.60
2017-11-01T14:39:42.894Z,21.53
2017-11-01T14:42:10.200Z,21.90
2017-11-01T14:44:37.542Z,22.60
2017-11-01T14:47:05.002Z,21.90
2017-11-01T14:49:32.349Z,21.70
2017-11-01T14:51:59.662Z,20.13
2017-11-01T14:54:27.021Z,21.20
2017-11-01T14:56:54.549Z,22.27
2017-11-01T14:59:21.883Z,19.73
2017-11-01T15:01:49.205Z,22.43
2017-11-01T15:04:16.544Z,20.33
2017-11-01T15:06:43.842Z,21.07
2017-11-01T15:09:11.161Z,22.00
2017-11-01T15:11:38.983Z,21.90
2017-11-01T15:14:06.306Z,19.90
2017-11-01T15:16:33.645Z,20.80
2017-11-01T15:19:00.966Z,22.17
2017-11-01T15:21:28.293Z,22.80
2017-11-01T15:23:55.648Z,23.17
2017-11-01T15:26:23.824Z,21.70
2017-11-01T15:28:51.117Z,23.90
2017-11-01T15:31:18.540Z,19.40
2017-11-01T15:33:45.858Z,22.63
2017-11-01T15:36:13.237Z,22.23
2017-11-01T15:38:40.909Z,23.43
2017-11-01T15:41:08.229Z,22.70
2017-11-01T15:43:35.526Z,23.30
2017-11-01T15:46:02.849Z,24.47
2017-11-01T15:48:30.152Z,22.70
2017-11-01T15:50:57.537Z,23.70
2017-11-01T15:53:24.845Z,24.27
2017-11-01T15:55:52.152Z,23.67
2017-11-01T15:58:19.476Z,24.60
2017-11-01T16:00:46.801Z,24.63
2017-11-01T16:03:14.121Z,25.17
2017-11-01T16:05:41.433Z,26.20
2017-11-01T16:08:08.764Z,25.97
2017-11-01T16:10:36.087Z,26.40
2017-11-01T16:13:03.469Z,26.67
2017-11-01T16:15:30.808Z,23.63
2017-11-01T16:17:58.159Z,24.47
2017-11-01T16:20:25.472Z,26.87
2017-11-01T16:22:52.868Z,27.50
2017-11-01T16:25:20.209Z,28.00
2017-11-01T16:27:47.601Z,26.63
2017-11-01T16:30:14.937Z,25.40
2017-11-01T16:32:42.248Z,26.73
2017-11-01T16:35:09.572Z,25.93
2017-11-01T16:37:36.893Z,26.87
2017-11-01T16:40:04.209Z,28.87
2017-11-01T16:42:31.550Z,28.37
2017-11-01T16:44:58.882Z,24.77
2017-11-01T16:47:26.246Z,28.20
2017-11-01T16:49:53.595Z,29.00
2017-11-01T16:52:20.904Z,28.43
2017-11-01T16:54:48.234Z,26.77
2017-11-01T16:57:15.532Z,28.03
2017-11-01T16:59:42.880Z,27.33
2017-11-01T17:02:10.217Z,25.50
2017-11-01T17:04:37.605Z,28.13
2017-11-01T17:07:04.951Z,26.97
2017-11-01T17:09:32.326Z,26.57
2017-11-01T17:11:59.668Z,26.60
2017-11-01T17:14:26.973Z,28.00
2017-11-01T17:16:55.193Z,27.07
2017-11-01T17:19:22.522Z,29.30
2017-11-01T17:21:49.845Z,28.17
2017-11-01T17:24:17.157Z,27.20
2017-11-01T17:26:44.476Z,26.57
2017-11-01T17:29:11.797Z,28.77
2017-11-01T17:31:39.121Z,26.30
2017-11-01T17:34:06.426Z,26.83
2017-11-01T17:36:33.742Z,27.73
2017-11-01T17:39:01.073Z,26.60
2017-11-01T17:41:28.404Z,30.57
2017-11-01T17:43:56.112Z,28.90
2017-11-01T17:46:23.424Z,28.73
2017-11-01T17:48:50.756Z,29.80
2017-11-01T17:51:18.069Z,28.60
2017-11-01T17:53:45.673Z,28.20
2017-11-01T17:56:12.961Z,28.00
2017-11-01T17:58:40.354Z,29.20
2017-11-01T18:01:07.698Z,28.10
2017-11-01T18:03:35.017Z,28.90
2017-11-01T18:06:02.324Z,29.20
2017-11-01T18:08:29.663Z,28.73
2017-11-01T18:10:56.983Z,28.27
2017-11-01T18:13:24.305Z,29.40
2017-11-01T18:15:51.618Z,28.03
2017-11-01T18:18:18.964Z,27.53
2017-11-01T18:20:46.268Z,29.33
2017-11-01T18:23:13.577Z,28.43
2017-11-01T18:25:40.903Z,27.00
2017-11-01T18:28:08.210Z,27.43
2017-11-01T18:30:35.538Z,26.13
2017-11-01T18:33:02.845Z,27.50
2017-11-01T18:35:30.161Z,25.20
2017-11-01T18:37:57.473Z,25.73
2017-11-01T18:40:24.813Z,27.00
2017-11-01T18:42:52.156Z,25.33
2017-11-01T18:45:19.479Z,24.80
2017-11-01T18:47:46.816Z,28.60
2017-11-01T18:50:14.140Z,25.93
2017-11-01T18:52:41.450Z,26.53
2017-11-01T18:55:08.796Z,25.47
2017-11-01T18:57:36.113Z,25.60
2017-11-01T19:00:03.442Z,27.20
2017-11-01T19:02:30.770Z,24.53
2017-11-01T19:04:58.075Z,25.80
2017-11-01T19:07:25.397Z,28.53
2017-11-01T19:09:52.704Z,25.13
2017-11-01T19:12:20.026Z,25.50
2017-11-01T19:14:47.362Z,25.83
2017-11-01T19:17:14.684Z,27.43
2017-11-01T19:19:42.193Z,24.70
2017-11-01T19:22:09.517Z,27.70
2017-11-01T19:24:36.834Z,25.20
2017-11-01T19:27:04.151Z,26.57
2017-11-01T19:29:31.474Z,25.73
2017-11-01T19:31:58.789Z,25.03
2017-11-01T19:34:26.120Z,24.50
2017-11-01T19:36:53.434Z,26.60
2017-11-01T19:39:20.757Z,26.03
2017-11-01T19:41:48.071Z,24.87
2017-11-01T19:44:15.388Z,26.73
2017-11-01T19:46:42.695Z,27.53
2017-11-01T19:49:10.021Z,26.90
2017-11-01T19:51:37.433Z,27.20
2017-11-01T19:54:04.764Z,27.47
2017-11-01T19:56:32.228Z,26.93
2017-11-01T19:58:59.569Z,28.30
2017-11-01T20:01:26.869Z,27.10
2017-11-01T20:03:54.569Z,28.07
2017-11-01T20:06:21.897Z,28.07
2017-11-01T20:08:49.217Z,25.60
2017-11-01T20:11:16.632Z,27.10
2017-11-01T20:13:43.957Z,26.03
2017-11-01T20:16:11.272Z,25.80
2017-11-01T20:18:38.637Z,24.37
2017-11-01T20:21:05.957Z,27.20
2017-11-01T20:23:33.293Z,24.67
2017-11-01T20:26:00.633Z,24.03
2017-11-01T20:28:27.933Z,25.23
2017-11-01T20:30:55.266Z,23.63
2017-11-01T20:33:22.574Z,23.93
2017-11-01T20:35:49.888Z,25.37
2017-11-01T20:38:17.242Z,24.40
2017-11-01T20:40:44.590Z,23.47
2017-11-01T20:43:11.893Z,22.13
2017-11-01T20:45:39.209Z,22.90
2017-11-01T20:48:06.510Z,23.03
2017-11-01T20:50:33.858Z,23.87
2017-11-01T20:53:01.162Z,22.67
2017-11-01T20:55:28.496Z,22.13
2017-11-01T20:57:55.789Z,22.33
2017-11-01T21:00:24.255Z,22.17
2017-11-01T21:02:51.550Z,21.97
2017-11-01T21:05:18.869Z,24.03
2017-11-01T21:07:47.136Z,23.10
2017-11-01T21:10:14.440Z,22.90
2017-11-01T21:12:41.770Z,23.40
2017-11-01T21:15:09.093Z,23.10
2017-11-01T21:17:36.559Z,19.97
2017-11-01T21:20:03.877Z,21.47
2017-11-01T21:22:31.193Z,21.00
2017-11-01T21:24:58.502Z,21.00
2017-11-01T21:27:25.948Z,21.57
2017-11-01T21:29:53.281Z,21.10
2017-11-01T21:32:20.609Z,20.30
2017-11-01T21:34:47.926Z,19.40
2017-11-01T21:37:15.277Z,18.80
2017-11-01T21:39:42.585Z,18.67
2017-11-01T21:42:09.942Z,19.10
2017-11-01T21:44:37.273Z,19.60
2017-11-01T21:47:04.565Z,19.63
2017-11-01T21:49:31.893Z,20.33
2017-11-01T21:51:59.217Z,18.50
2017-11-01T21:54:26.536Z,18.40
2017-11-01T21:56:53.846Z,19.53
2017-11-01T21:59:21.156Z,18.73
2017-11-01T22:01:49.546Z,18.83
2017-11-01T22:04:17.043Z,18.60
2017-11-01T22:06:44.342Z,19.37
2017-11-01T22:09:11.689Z,20.27
2017-11-01T22:11:38.996Z,18.37
2017-11-01T22:14:06.301Z,19.10
2017-11-01T22:16:33.630Z,18.60
2017-11-01T22:19:00.987Z,18.23
2017-11-01T22:21:28.309Z,17.80
2017-11-01T22:23:55.624Z,20.07
2017-11-01T22:26:22.945Z,20.73
2017-11-01T22:28:50.532Z,18.13
2017-11-01T22:31:17.852Z,17.93
2017-11-01T22:33:45.225Z,19.03
2017-11-01T22:36:12.540Z,17.60
2017-11-01T22:38:39.856Z,18.10
2017-11-01T22:41:07.180Z,17.80
2017-11-01T22:43:34.490Z,16.63
2017-11-01T22:46:01.801Z,17.93
2017-11-01T22:48:29.128Z,17.60
2017-11-01T22:50:56.432Z,17.83
2017-11-01T22:53:24.088Z,18.27
2017-11-01T22:55:51.438Z,17.67
2017-11-01T22:58:18.766Z,17.37
2017-11-01T23:00:46.079Z,16.37
2017-11-01T23:03:13.401Z,16.50
2017-11-01T23:05:40.713Z,17.47
2017-11-01T23:08:08.034Z,18.40
2017-11-01T23:10:39.102Z,17.80
2017-11-01T23:13:06.422Z,17.50
2017-11-01T23:15:33.762Z,16.90
2017-11-01T23:18:01.101Z,16.30
2017-11-01T23:20:28.393Z,15.87
2017-11-01T23:22:55.692Z,17.20
2017-11-01T23:25:23.012Z,16.57
2017-11-01T23:27:50.309Z,16.53
2017-11-01T23:30:17.625Z,18.47
2017-11-01T23:32:44.928Z,17.67
2017-11-01T23:35:19.165Z,18.30
2017-11-01T23:37:46.465Z,16.70
2017-11-01T23:40:13.823Z,17.10
2017-11-01T23:42:41.129Z,17.27
2017-11-01T23:45:08.458Z,16.73
2017-11-01T23:47:35.766Z,16.53
2017-11-01T23:50:03.089Z,15.47
2017-11-01T23:52:31.562Z,15.80
2017-11-01T23:54:58.878Z,15.93
2017-11-01T23:57:26.205Z,15.13
2017-11-01T23:59:53.514Z,14.73
